sensor_id;sensor_type;location;lat;lon;timestamp;P1;durP1;ratioP1;P2;durP2;ratioP2
57893;SDS011;43710;47.460;19.034;2022-12-20T05:04:48;42.00;;;23.12;;
57893;SDS011;43710;47.460;19.034;2022-12-20T05:07:51;41.90;;;23.45;;
57893;SDS011;43710;47.460;19.034;2022-12-20T05:10:54;42.45;;;22.48;;
57893;SDS011;43710;47.460;19.034;2022-12-20T05:13:57;42.10;;;23.30;;
57893;SDS011;43710;47.460;19.034;2022-12-20T05:16:59;43.40;;;23.80;;
57893;SDS011;43710;47.460;19.034;2022-12-20T05:20:03;41.53;;;24.67;;
57893;SDS011;43710;47.460;19.034;2022-12-20T05:23:07;41.33;;;24.27;;
57893;SDS011;43710;47.460;19.034;2022-12-20T05:26:34;42.40;;;24.25;;
57893;SDS011;43710;47.460;19.034;2022-12-20T05:29:38;38.72;;;22.75;;
57893;SDS011;43710;47.460;19.034;2022-12-20T05:32:40;35.88;;;22.70;;
57893;SDS011;43710;47.460;19.034;2022-12-20T05:35:43;39.30;;;22.58;;
57893;SDS011;43710;47.460;19.034;2022-12-20T05:38:46;41.97;;;23.58;;
57893;SDS011;43710;47.460;19.034;2022-12-20T05:41:48;41.53;;;22.95;;
57893;SDS011;43710;47.460;19.034;2022-12-20T05:44:52;37.85;;;22.80;;
57893;SDS011;43710;47.460;19.034;2022-12-20T05:47:54;38.20;;;23.23;;
57893;SDS011;43710;47.460;19.034;2022-12-20T05:50:57;39.10;;;23.10;;
57893;SDS011;43710;47.460;19.034;2022-12-20T05:53:59;40.95;;;24.67;;
57893;SDS011;43710;47.460;19.034;2022-12-20T05:57:03;40.47;;;22.23;;
57893;SDS011;43710;47.460;19.034;2022-12-20T06:00:06;38.58;;;23.55;;
57893;SDS011;43710;47.460;19.034;2022-12-20T06:03:17;42.75;;;23.70;;
57893;SDS011;43710;47.460;19.034;2022-12-20T06:06:20;43.25;;;21.73;;
57893;SDS011;43710;47.460;19.034;2022-12-20T06:09:22;38.67;;;22.62;;
57893;SDS011;43710;47.460;19.034;2022-12-20T06:12:25;41.88;;;22.52;;
57893;SDS011;43710;47.460;19.034;2022-12-20T06:15:28;40.78;;;23.27;;
57893;SDS011;43710;47.460;19.034;2022-12-20T06:18:31;38.67;;;23.08;;
57893;SDS011;43710;47.460;19.034;2022-12-20T06:21:34;39.70;;;23.60;;
57893;SDS011;43710;47.460;19.034;2022-12-20T06:24:37;42.13;;;23.77;;
57893;SDS011;43710;47.460;19.034;2022-12-20T06:27:49;40.10;;;23.83;;
57893;SDS011;43710;47.460;19.034;2022-12-20T06:30:52;42.58;;;23.27;;
57893;SDS011;43710;47.460;19.034;2022-12-20T06:33:57;38.47;;;22.73;;
57893;SDS011;43710;47.460;19.034;2022-12-20T06:37:00;40.97;;;23.40;;
57893;SDS011;43710;47.460;19.034;2022-12-20T06:40:03;39.60;;;21.67;;
57893;SDS011;43710;47.460;19.034;2022-12-20T06:43:06;38.22;;;21.52;;
57893;SDS011;43710;47.460;19.034;2022-12-20T06:46:08;37.78;;;20.98;;
57893;SDS011;43710;47.460;19.034;2022-12-20T06:49:11;36.53;;;21.73;;
57893;SDS011;43710;47.460;19.034;2022-12-20T06:52:13;39.50;;;24.10;;
57893;SDS011;43710;47.460;19.034;2022-12-20T06:55:16;42.20;;;22.17;;
57893;SDS011;43710;47.460;19.034;2022-12-20T06:58:19;36.22;;;22.73;;
57893;SDS011;43710;47.460;19.034;2022-12-20T07:01:21;38.35;;;22.83;;
57893;SDS011;43710;47.460;19.034;2022-12-20T07:04:24;35.95;;;21.23;;
57893;SDS011;43710;47.460;19.034;2022-12-20T07:07:26;40.55;;;22.60;;
57893;SDS011;43710;47.460;19.034;2022-12-20T07:10:29;39.70;;;22.33;;
57893;SDS011;43710;47.460;19.034;2022-12-20T07:13:32;36.65;;;22.17;;
57893;SDS011;43710;47.460;19.034;2022-12-20T07:16:35;33.80;;;22.95;;
57893;SDS011;43710;47.460;19.034;2022-12-20T07:19:38;39.00;;;22.75;;
57893;SDS011;43710;47.460;19.034;2022-12-20T07:22:47;50.33;;;24.35;;
57893;SDS011;43710;47.460;19.034;2022-12-20T07:25:57;39.90;;;22.52;;
57893;SDS011;43710;47.460;19.034;2022-12-20T07:29:01;39.03;;;20.10;;
57893;SDS011;43710;47.460;19.034;2022-12-20T07:32:03;45.70;;;22.00;;
57893;SDS011;43710;47.460;19.034;2022-12-20T07:35:05;37.22;;;21.33;;
57893;SDS011;43710;47.460;19.034;2022-12-20T07:38:08;76.37;;;36.83;;
57893;SDS011;43710;47.460;19.034;2022-12-20T07:41:12;43.60;;;24.23;;
57893;SDS011;43710;47.460;19.034;2022-12-20T07:44:16;40.45;;;23.85;;
57893;SDS011;43710;47.460;19.034;2022-12-20T07:47:19;37.05;;;21.55;;
57893;SDS011;43710;47.460;19.034;2022-12-20T07:50:22;37.67;;;21.73;;
57893;SDS011;43710;47.460;19.034;2022-12-20T07:53:26;34.45;;;21.05;;
57893;SDS011;43710;47.460;19.034;2022-12-20T07:56:30;35.20;;;21.92;;
57893;SDS011;43710;47.460;19.034;2022-12-20T07:59:43;32.42;;;20.75;;
57893;SDS011;43710;47.460;19.034;2022-12-20T08:03:03;36.05;;;20.95;;
57893;SDS011;43710;47.460;19.034;2022-12-20T08:06:13;32.55;;;19.80;;
57893;SDS011;43710;47.460;19.034;2022-12-20T08:09:16;33.13;;;20.02;;
57893;SDS011;43710;47.460;19.034;2022-12-20T08:12:20;41.25;;;21.37;;
57893;SDS011;43710;47.460;19.034;2022-12-20T08:15:22;33.45;;;18.52;;
57893;SDS011;43710;47.460;19.034;2022-12-20T08:18:25;33.28;;;20.30;;
57893;SDS011;43710;47.460;19.034;2022-12-20T08:21:28;33.72;;;18.73;;
57893;SDS011;43710;47.460;19.034;2022-12-20T08:24:32;36.53;;;20.92;;
57893;SDS011;43710;47.460;19.034;2022-12-20T08:27:35;31.95;;;19.08;;
57893;SDS011;43710;47.460;19.034;2022-12-20T08:30:37;30.08;;;18.70;;
57893;SDS011;43710;47.460;19.034;2022-12-20T08:33:39;30.30;;;19.05;;
57893;SDS011;43710;47.460;19.034;2022-12-20T08:36:42;30.37;;;18.48;;
57893;SDS011;43710;47.460;19.034;2022-12-20T08:39:44;29.23;;;18.83;;
57893;SDS011;43710;47.460;19.034;2022-12-20T08:42:47;32.22;;;18.95;;
57893;SDS011;43710;47.460;19.034;2022-12-20T08:45:52;30.58;;;18.20;;
57893;SDS011;43710;47.460;19.034;2022-12-20T08:48:56;35.08;;;18.55;;
57893;SDS011;43710;47.460;19.034;2022-12-20T08:51:58;33.10;;;19.55;;
57893;SDS011;43710;47.460;19.034;2022-12-20T08:55:00;32.63;;;18.33;;
57893;SDS011;43710;47.460;19.034;2022-12-20T08:58:06;30.10;;;18.33;;
57893;SDS011;43710;47.460;19.034;2022-12-20T09:01:10;33.22;;;19.23;;
57893;SDS011;43710;47.460;19.034;2022-12-20T09:04:27;34.53;;;19.25;;
57893;SDS011;43710;47.460;19.034;2022-12-20T09:07:30;30.75;;;19.15;;
57893;SDS011;43710;47.460;19.034;2022-12-20T09:10:32;32.30;;;18.95;;
57893;SDS011;43710;47.460;19.034;2022-12-20T09:13:34;30.33;;;18.90;;
57893;SDS011;43710;47.460;19.034;2022-12-20T09:16:44;32.92;;;19.27;;
57893;SDS011;43710;47.460;19.034;2022-12-20T09:19:47;32.38;;;18.87;;
57893;SDS011;43710;47.460;19.034;2022-12-20T09:22:49;30.92;;;18.58;;
57893;SDS011;43710;47.460;19.034;2022-12-20T09:25:52;35.15;;;19.83;;
57893;SDS011;43710;47.460;19.034;2022-12-20T09:28:55;32.60;;;19.37;;
57893;SDS011;43710;47.460;19.034;2022-12-20T09:31:58;31.23;;;19.30;;
57893;SDS011;43710;47.460;19.034;2022-12-20T09:35:00;30.40;;;18.23;;
57893;SDS011;43710;47.460;19.034;2022-12-20T09:38:03;29.52;;;18.12;;
57893;SDS011;43710;47.460;19.034;2022-12-20T09:41:06;33.70;;;19.20;;
57893;SDS011;43710;47.460;19.034;2022-12-20T09:47:21;33.15;;;18.58;;
57893;SDS011;43710;47.460;19.034;2022-12-20T09:50:35;32.17;;;18.48;;
57893;SDS011;43710;47.460;19.034;2022-12-20T09:53:55;30.80;;;18.65;;
57893;SDS011;43710;47.460;19.034;2022-12-20T09:57:05;32.65;;;19.27;;
57893;SDS011;43710;47.460;19.034;2022-12-20T10:00:24;30.77;;;18.67;;
57893;SDS011;43710;47.460;19.034;2022-12-20T10:03:30;29.40;;;17.98;;
57893;SDS011;43710;47.460;19.034;2022-12-20T10:16:41;40.12;;;19.35;;
57893;SDS011;43710;47.460;19.034;2022-12-20T10:19:57;30.30;;;17.85;;
57893;SDS011;43710;47.460;19.034;2022-12-20T10:23:18;28.83;;;17.27;;
57893;SDS011;43710;47.460;19.034;2022-12-20T10:26:34;34.85;;;17.70;;
57893;SDS011;43710;47.460;19.034;2022-12-20T10:29:37;36.95;;;17.27;;
57893;SDS011;43710;47.460;19.034;2022-12-20T10:32:39;29.92;;;17.50;;
57893;SDS011;43710;47.460;19.034;2022-12-20T10:35:44;26.60;;;16.42;;
57893;SDS011;43710;47.460;19.034;2022-12-20T10:38:48;26.15;;;16.15;;
57893;SDS011;43710;47.460;19.034;2022-12-20T10:41:52;29.42;;;18.35;;
57893;SDS011;43710;47.460;19.034;2022-12-20T10:44:54;30.27;;;17.27;;
57893;SDS011;43710;47.460;19.034;2022-12-20T10:47:59;28.23;;;17.35;;
57893;SDS011;43710;47.460;19.034;2022-12-20T10:54:27;28.55;;;16.77;;
57893;SDS011;43710;47.460;19.034;2022-12-20T10:57:39;25.77;;;16.95;;
57893;SDS011;43710;47.460;19.034;2022-12-20T11:00:43;26.48;;;16.05;;
57893;SDS011;43710;47.460;19.034;2022-12-20T11:03:53;28.70;;;16.92;;
57893;SDS011;43710;47.460;19.034;2022-12-20T11:06:59;27.05;;;16.58;;
57893;SDS011;43710;47.460;19.034;2022-12-20T11:10:20;26.58;;;16.80;;
57893;SDS011;43710;47.460;19.034;2022-12-20T11:13:27;24.95;;;16.27;;
57893;SDS011;43710;47.460;19.034;2022-12-20T11:16:39;26.10;;;17.02;;
57893;SDS011;43710;47.460;19.034;2022-12-20T11:20:00;27.20;;;17.25;;
57893;SDS011;43710;47.460;19.034;2022-12-20T11:23:21;25.83;;;16.27;;
57893;SDS011;43710;47.460;19.034;2022-12-20T11:26:40;31.17;;;16.95;;
57893;SDS011;43710;47.460;19.034;2022-12-20T11:30:04;29.30;;;17.27;;
57893;SDS011;43710;47.460;19.034;2022-12-20T11:50:24;27.55;;;16.30;;
57893;SDS011;43710;47.460;19.034;2022-12-20T11:53:39;28.20;;;18.70;;
57893;SDS011;43710;47.460;19.034;2022-12-20T11:56:47;27.13;;;17.12;;
57893;SDS011;43710;47.460;19.034;2022-12-20T11:59:57;28.23;;;16.85;;
57893;SDS011;43710;47.460;19.034;2022-12-20T12:03:09;31.52;;;18.12;;
57893;SDS011;43710;47.460;19.034;2022-12-20T12:06:20;27.98;;;17.20;;
57893;SDS011;43710;47.460;19.034;2022-12-20T12:09:41;29.30;;;18.33;;
57893;SDS011;43710;47.460;19.034;2022-12-20T12:12:59;27.15;;;17.05;;
57893;SDS011;43710;47.460;19.034;2022-12-20T12:16:23;27.50;;;16.50;;
57893;SDS011;43710;47.460;19.034;2022-12-20T12:19:30;30.85;;;17.33;;
57893;SDS011;43710;47.460;19.034;2022-12-20T12:22:34;28.42;;;17.67;;
57893;SDS011;43710;47.460;19.034;2022-12-20T12:25:39;39.05;;;26.90;;
57893;SDS011;43710;47.460;19.034;2022-12-20T12:28:42;29.05;;;16.62;;
57893;SDS011;43710;47.460;19.034;2022-12-20T12:35:12;28.75;;;18.98;;
57893;SDS011;43710;47.460;19.034;2022-12-20T12:39:28;31.33;;;17.87;;
57893;SDS011;43710;47.460;19.034;2022-12-20T12:49:06;29.83;;;16.48;;
57893;SDS011;43710;47.460;19.034;2022-12-20T12:52:28;28.52;;;17.20;;
57893;SDS011;43710;47.460;19.034;2022-12-20T13:08:45;27.17;;;17.62;;
57893;SDS011;43710;47.460;19.034;2022-12-20T13:11:50;30.80;;;19.83;;
57893;SDS011;43710;47.460;19.034;2022-12-20T13:15:47;29.40;;;18.33;;
57893;SDS011;43710;47.460;19.034;2022-12-20T13:18:29;29.83;;;19.02;;
57893;SDS011;43710;47.460;19.034;2022-12-20T13:21:34;32.30;;;18.15;;
57893;SDS011;43710;47.460;19.034;2022-12-20T13:24:39;26.77;;;16.62;;
57893;SDS011;43710;47.460;19.034;2022-12-20T13:31:28;30.75;;;17.48;;
57893;SDS011;43710;47.460;19.034;2022-12-20T13:34:52;30.42;;;18.70;;
57893;SDS011;43710;47.460;19.034;2022-12-20T13:44:41;29.10;;;18.30;;
57893;SDS011;43710;47.460;19.034;2022-12-20T13:47:47;31.52;;;18.58;;
57893;SDS011;43710;47.460;19.034;2022-12-20T13:50:55;31.85;;;17.67;;
57893;SDS011;43710;47.460;19.034;2022-12-20T13:53:59;34.35;;;18.87;;
57893;SDS011;43710;47.460;19.034;2022-12-20T13:57:04;28.15;;;18.50;;
57893;SDS011;43710;47.460;19.034;2022-12-20T14:00:15;27.55;;;16.98;;
57893;SDS011;43710;47.460;19.034;2022-12-20T14:03:21;34.28;;;18.23;;
57893;SDS011;43710;47.460;19.034;2022-12-20T14:06:25;30.45;;;18.75;;
57893;SDS011;43710;47.460;19.034;2022-12-20T14:09:32;33.33;;;19.23;;
57893;SDS011;43710;47.460;19.034;2022-12-20T14:12:41;30.48;;;20.75;;
57893;SDS011;43710;47.460;19.034;2022-12-20T14:15:48;32.28;;;19.20;;
57893;SDS011;43710;47.460;19.034;2022-12-20T14:21:59;30.25;;;17.87;;
57893;SDS011;43710;47.460;19.034;2022-12-20T14:25:01;31.25;;;18.83;;
57893;SDS011;43710;47.460;19.034;2022-12-20T14:28:12;30.35;;;17.33;;
57893;SDS011;43710;47.460;19.034;2022-12-20T14:31:28;31.17;;;18.52;;
57893;SDS011;43710;47.460;19.034;2022-12-20T14:34:38;32.90;;;21.52;;
57893;SDS011;43710;47.460;19.034;2022-12-20T14:37:50;30.20;;;18.08;;
57893;SDS011;43710;47.460;19.034;2022-12-20T14:40:58;33.88;;;19.02;;
57893;SDS011;43710;47.460;19.034;2022-12-20T14:47:24;28.73;;;18.25;;
57893;SDS011;43710;47.460;19.034;2022-12-20T14:50:32;34.75;;;18.02;;
57893;SDS011;43710;47.460;19.034;2022-12-20T14:53:37;29.63;;;18.52;;
57893;SDS011;43710;47.460;19.034;2022-12-20T14:56:43;32.03;;;17.87;;
57893;SDS011;43710;47.460;19.034;2022-12-20T15:03:28;33.97;;;18.05;;
57893;SDS011;43710;47.460;19.034;2022-12-20T15:09:44;35.33;;;19.30;;
57893;SDS011;43710;47.460;19.034;2022-12-20T15:12:47;33.92;;;21.10;;
57893;SDS011;43710;47.460;19.034;2022-12-20T15:15:49;35.78;;;21.73;;
57893;SDS011;43710;47.460;19.034;2022-12-20T15:18:55;35.63;;;22.55;;
57893;SDS011;43710;47.460;19.034;2022-12-20T15:22:02;35.70;;;22.52;;
57893;SDS011;43710;47.460;19.034;2022-12-20T15:25:13;36.58;;;22.95;;
57893;SDS011;43710;47.460;19.034;2022-12-20T15:28:18;34.10;;;21.62;;
57893;SDS011;43710;47.460;19.034;2022-12-20T15:31:22;33.70;;;22.13;;
57893;SDS011;43710;47.460;19.034;2022-12-20T15:34:34;37.85;;;22.87;;
57893;SDS011;43710;47.460;19.034;2022-12-20T15:37:39;35.63;;;22.02;;
57893;SDS011;43710;47.460;19.034;2022-12-20T15:40:42;40.42;;;23.95;;
57893;SDS011;43710;47.460;19.034;2022-12-20T15:43:46;39.95;;;24.02;;
57893;SDS011;43710;47.460;19.034;2022-12-20T15:46:50;32.72;;;23.12;;
57893;SDS011;43710;47.460;19.034;2022-12-20T15:49:53;44.17;;;25.70;;
57893;SDS011;43710;47.460;19.034;2022-12-20T15:52:55;40.90;;;24.25;;
57893;SDS011;43710;47.460;19.034;2022-12-20T15:55:59;38.92;;;24.77;;
57893;SDS011;43710;47.460;19.034;2022-12-20T15:59:01;39.78;;;24.45;;
57893;SDS011;43710;47.460;19.034;2022-12-20T16:02:25;39.92;;;25.00;;
57893;SDS011;43710;47.460;19.034;2022-12-20T16:05:30;50.75;;;25.45;;
57893;SDS011;43710;47.460;19.034;2022-12-20T16:08:32;38.53;;;23.10;;
57893;SDS011;43710;47.460;19.034;2022-12-20T16:11:34;43.70;;;26.08;;
57893;SDS011;43710;47.460;19.034;2022-12-20T16:14:36;40.33;;;23.90;;
57893;SDS011;43710;47.460;19.034;2022-12-20T16:17:39;37.65;;;23.52;;
57893;SDS011;43710;47.460;19.034;2022-12-20T16:20:41;44.10;;;25.48;;
57893;SDS011;43710;47.460;19.034;2022-12-20T16:23:45;39.70;;;24.27;;
57893;SDS011;43710;47.460;19.034;2022-12-20T16:26:48;39.97;;;24.65;;
57893;SDS011;43710;47.460;19.034;2022-12-20T16:29:50;39.35;;;24.63;;
57893;SDS011;43710;47.460;19.034;2022-12-20T16:32:52;42.38;;;23.65;;
57893;SDS011;43710;47.460;19.034;2022-12-20T16:35:55;39.63;;;23.95;;
57893;SDS011;43710;47.460;19.034;2022-12-20T16:38:57;39.33;;;24.27;;
57893;SDS011;43710;47.460;19.034;2022-12-20T16:42:00;39.15;;;24.23;;
57893;SDS011;43710;47.460;19.034;2022-12-20T16:45:02;37.70;;;22.55;;
57893;SDS011;43710;47.460;19.034;2022-12-20T16:48:05;38.42;;;24.25;;
57893;SDS011;43710;47.460;19.034;2022-12-20T16:51:50;41.35;;;25.23;;
57893;SDS011;43710;47.460;19.034;2022-12-20T16:54:34;39.42;;;25.52;;
